EDLN/MGL METAR and TAF weather

Enter ICAO airport designator
Station Type Date Time Source
EDLN METAR 2020/02/26 08:50 UTC NOAA

EDLN 260850Z 27007KT 6000 -RA OVC007 02/01 Q0997


Station Type Date Time Source
EDLN Decoded METAR 2020/02/26 08:50 UTC NOAA

Monchengladbach, Germany (EDLN) 51-13-49N 006-30-16E
Feb 26, 2020 - 03:50 AM EST / 2020.02.26 0850 UTC
Wind: from the W (270 degrees) at 8 MPH (7 KT):0
Visibility: 3 mile(s):0
Sky conditions: overcast
Weather: light rain
Temperature: 35 F (2 C)
Windchill: 28 F (-2 C):1
Dew Point: 33 F (1 C)
Relative Humidity: 93%
Pressure (altimeter): 29.44 in. Hg (0997 hPa)
ob: EDLN 260850Z 27007KT 6000 -RA OVC007 02/01 Q0997
cycle: 9

Station Type Date Time Source
EDLN TAF 2010/02/22 14:20 UTC NOAA

METAR EDLN 221420Z 18010G20KT 090V240 9999 SCT030 BKN045 11/06 Q0986
RMK ATIS R=

Example: see airport list